Time;durP1;ratioP1;P1;durP2;ratioP2;P2;SDS_P1;SDS_P2;PMS_P1;PMS_P2;Temp;Humidity;BMP_temperature;BMP_pressure;BME280_temperature;BME280_humidity;BME280_pressure;Samples;Min_cycle;Max_cycle;Signal;HPM_P1;HPM_P2
2022/11/09 00:01:22;;;;;;;15.00;5.35;;;;;;;;;;7385269;19;20026;-73
2022/11/09 00:03:54;;;;;;;9.73;5.10;;;;;;;;;;7387252;19;20011;-71
2022/11/09 00:06:19;;;;;;;;;;;;;;;;;;7387952;19;19998;-70
2022/11/09 00:08:44;;;;;;;9.10;4.80;;;;;;;;;;7385563;19;20002;-70
2022/11/09 00:11:10;;;;;;;9.63;5.22;;;;;;;;;;7386748;19;20255;-71
2022/11/09 00:13:38;;;;;;;11.52;5.43;;;;;;;;;;7385358;19;20018;-70
2022/11/09 00:16:04;;;;;;;10.45;5.20;;;;;;;;;;7385189;19;20033;-69
2022/11/09 00:18:30;;;;;;;12.43;6.15;;;;;;;;;;7385884;19;20087;-71
2022/11/09 00:20:55;;;;;;;10.38;5.93;;;;;;;;;;7387220;19;20003;-71
2022/11/09 00:23:21;;;;;;;10.15;6.03;;;;;;;;;;7385072;19;20044;-71
2022/11/09 00:25:47;;;;;;;9.15;5.82;;;;;;;;;;7387161;19;20337;-71
2022/11/09 00:28:13;;;;;;;13.50;6.55;;;;;;;;;;7387150;19;20464;-70
2022/11/09 00:30:39;;;;;;;10.00;6.05;;;;;;;;;;7388320;19;20344;-71
2022/11/09 00:33:09;;;;;;;10.65;6.43;;;;;;;;;;7385806;19;20006;-70
2022/11/09 00:35:37;;;;;;;10.05;6.20;;;;;;;;;;7388877;19;20011;-71
2022/11/09 00:38:02;;;;;;;9.98;5.88;;;;;;;;;;7386187;19;20003;-68
2022/11/09 00:40:27;;;;;;;9.63;6.20;;;;;;;;;;7390910;19;20018;-69
2022/11/09 00:42:53;;;;;;;11.45;6.20;;;;;;;;;;7385003;19;19998;-70
2022/11/09 00:45:19;;;;;;;16.38;7.22;;;;;;;;;;7386593;19;20475;-69
2022/11/09 00:47:44;;;;;;;11.32;6.43;;;;;;;;;;7386653;19;20002;-69
2022/11/09 00:50:09;;;;;;;12.25;6.63;;;;;;;;;;7386569;19;19999;-70
2022/11/09 00:52:35;;;;;;;13.35;7.05;;;;;;;;;;7384707;19;20007;-70
2022/11/09 00:55:00;;;;;;;11.55;6.65;;;;;;;;;;7384707;19;20002;-70
2022/11/09 00:57:25;;;;;;;13.68;7.10;;;;;;;;;;7386590;19;20009;-70
2022/11/09 00:59:52;;;;;;;11.05;7.03;;;;;;;;;;7385151;19;20095;-68
2022/11/09 01:02:18;;;;;;;13.07;6.88;;;;;;;;;;7383104;19;20007;-69
2022/11/09 01:04:43;;;;;;;10.18;6.25;;;;;;;;;;7386619;19;20054;-69
2022/11/09 01:07:08;;;;;;;11.50;6.50;;;;;;;;;;7384489;19;20010;-69
2022/11/09 01:09:37;;;;;;;12.18;6.38;;;;;;;;;;7390089;19;20002;-69
2022/11/09 01:12:03;;;;;;;9.38;6.18;;;;;;;;;;7384746;19;20006;-70
2022/11/09 01:14:28;;;;;;;14.57;6.68;;;;;;;;;;7390969;19;20003;-70
2022/11/09 01:16:53;;;;;;;13.18;7.13;;;;;;;;;;7393156;19;20343;-69
2022/11/09 01:19:19;;;;;;;15.30;7.32;;;;;;;;;;7389303;19;20005;-69
2022/11/09 01:21:44;;;;;;;12.70;6.65;;;;;;;;;;7392027;19;20095;-71
2022/11/09 01:24:09;;;;;;;9.65;6.13;;;;;;;;;;7393183;19;20062;-70
2022/11/09 01:26:35;;;;;;;10.95;6.78;;;;;;;;;;7391361;19;20018;-69
2022/11/09 01:29:00;;;;;;;14.07;7.07;;;;;;;;;;7395584;19;20009;-69
2022/11/09 01:31:26;;;;;;;11.55;6.50;;;;;;;;;;7390446;19;20062;-70
2022/11/09 01:33:51;;;;;;;10.55;6.78;;;;;;;;;;7391457;19;20475;-70
2022/11/09 01:36:20;;;;;;;15.10;6.97;;;;;;;;;;7392850;19;20020;-70
2022/11/09 01:38:46;;;;;;;16.42;7.40;;;;;;;;;;7391265;19;20036;-70
2022/11/09 01:41:15;;;;;;;18.63;7.43;;;;;;;;;;7392001;19;20026;-70
2022/11/09 01:43:40;;;;;;;17.35;8.32;;;;;;;;;;7392841;19;20007;-71
2022/11/09 01:46:20;;;;;;;18.95;8.48;;;;;;;;;;7392112;19;20338;-71
2022/11/09 01:48:57;;;;;;;16.42;7.13;;;;;;;;;;7391279;19;19999;-70
2022/11/09 01:51:27;;;;;;;13.73;7.60;;;;;;;;;;7391537;19;20026;-70
2022/11/09 01:53:57;;;;;;;11.25;7.80;;;;;;;;;;7392440;19;20002;-71
2022/11/09 01:56:23;;;;;;;16.10;8.27;;;;;;;;;;7390253;19;20003;-70
2022/11/09 01:58:59;;;;;;;14.85;7.03;;;;;;;;;;7390516;19;20003;-70
2022/11/09 02:01:25;;;;;;;12.75;7.63;;;;;;;;;;7391004;19;20381;-69
2022/11/09 02:03:56;;;;;;;13.82;7.50;;;;;;;;;;7392269;19;19999;-68
2022/11/09 02:06:23;;;;;;;;;;;;;;;;;;7392335;19;20002;-68
2022/11/09 02:08:51;;;;;;;11.68;6.97;;;;;;;;;;7390461;19;20277;-70
2022/11/09 02:11:19;;;;;;;11.13;7.50;;;;;;;;;;7390476;19;20437;-70
2022/11/09 02:13:50;;;;;;;15.85;7.88;;;;;;;;;;7389975;19;20010;-70
2022/11/09 02:16:17;;;;;;;16.27;7.47;;;;;;;;;;7391516;19;20002;-70
2022/11/09 02:18:57;;;;;;;14.57;6.90;;;;;;;;;;7389585;19;20061;-70
2022/11/09 02:21:25;;;;;;;15.43;7.97;;;;;;;;;;7390096;19;20360;-70
2022/11/09 02:23:51;;;;;;;11.65;7.20;;;;;;;;;;7388576;19;20003;-70
2022/11/09 02:26:31;;;;;;;14.00;7.35;;;;;;;;;;7390552;19;19995;-70
2022/11/09 02:28:58;;;;;;;14.40;8.18;;;;;;;;;;7389582;19;20030;-69
2022/11/09 02:31:30;;;;;;;12.45;8.27;;;;;;;;;;7389369;19;20003;-70
2022/11/09 02:34:02;;;;;;;17.05;8.13;;;;;;;;;;7390099;19;20471;-70
2022/11/09 02:36:28;;;;;;;12.75;7.88;;;;;;;;;;7390631;19;20022;-70
2022/11/09 02:38:54;;;;;;;17.75;8.15;;;;;;;;;;7388938;19;20003;-70
2022/11/09 02:41:21;;;;;;;13.05;8.32;;;;;;;;;;7392576;19;20346;-70
2022/11/09 02:43:47;;;;;;;16.10;7.65;;;;;;;;;;7388449;19;20026;-69
2022/11/09 02:46:39;;;;;;;14.90;8.05;;;;;;;;;;7389815;19;20006;-69
2022/11/09 02:49:05;;;;;;;12.88;8.23;;;;;;;;;;7387600;19;20002;-70
2022/11/09 02:51:30;;;;;;;16.67;9.00;;;;;;;;;;7387408;19;20003;-69
2022/11/09 02:53:56;;;;;;;15.32;9.68;;;;;;;;;;7388157;19;20514;-69
2022/11/09 02:56:21;;;;;;;20.33;9.98;;;;;;;;;;7389666;19;19999;-70
2022/11/09 02:58:47;;;;;;;17.63;9.45;;;;;;;;;;7388579;19;20007;-69
2022/11/09 03:01:12;;;;;;;16.23;9.68;;;;;;;;;;7388640;19;20006;-69
2022/11/09 03:03:38;;;;;;;17.17;10.15;;;;;;;;;;7387945;19;20094;-70
2022/11/09 03:06:03;;;;;;;16.70;9.98;;;;;;;;;;7389110;19;20695;-69
2022/11/09 03:08:28;;;;;;;14.68;10.00;;;;;;;;;;7389397;19;20003;-69
2022/11/09 03:10:54;;;;;;;19.85;10.77;;;;;;;;;;7389877;19;20082;-71
2022/11/09 03:13:19;;;;;;;16.42;10.27;;;;;;;;;;7387077;19;20006;-69
2022/11/09 03:15:44;;;;;;;17.30;10.55;;;;;;;;;;7388727;19;20014;-70
2022/11/09 03:18:10;;;;;;;16.25;11.10;;;;;;;;;;7386714;19;20006;-69
2022/11/09 03:20:35;;;;;;;13.68;9.20;;;;;;;;;;7389524;19;20011;-69
2022/11/09 03:23:01;;;;;;;19.05;9.93;;;;;;;;;;7387152;19;20317;-70
2022/11/09 03:25:29;;;;;;;15.48;9.18;;;;;;;;;;7389641;19;20682;-69
2022/11/09 03:28:01;;;;;;;12.48;8.40;;;;;;;;;;7387646;19;20007;-69
2022/11/09 03:30:27;;;;;;;18.70;8.65;;;;;;;;;;7389035;19;20056;-69
2022/11/09 03:33:00;;;;;;;13.02;7.70;;;;;;;;;;7387774;19;20515;-70
2022/11/09 03:35:26;;;;;;;13.75;7.50;;;;;;;;;;7388293;19;20361;-70
2022/11/09 03:37:51;;;;;;;12.48;7.70;;;;;;;;;;7386097;19;20006;-70
2022/11/09 03:40:17;;;;;;;13.68;7.20;;;;;;;;;;7388002;19;20008;-70
2022/11/09 03:42:44;;;;;;;12.65;7.18;;;;;;;;;;7387113;19;20306;-70
2022/11/09 03:45:09;;;;;;;14.93;8.80;;;;;;;;;;7389027;19;20003;-69
2022/11/09 03:47:35;;;;;;;15.48;9.65;;;;;;;;;;7388793;19;20003;-69
2022/11/09 03:50:00;;;;;;;17.85;10.40;;;;;;;;;;7389533;19;20020;-69
2022/11/09 03:52:25;;;;;;;15.73;10.20;;;;;;;;;;7385381;19;20018;-69
2022/11/09 03:54:51;;;;;;;19.48;11.38;;;;;;;;;;7388492;19;20007;-68
2022/11/09 03:57:16;;;;;;;19.77;11.32;;;;;;;;;;7386631;19;20674;-69
2022/11/09 03:59:41;;;;;;;21.88;12.07;;;;;;;;;;7386611;19;20003;-69
2022/11/09 04:02:06;;;;;;;20.08;12.30;;;;;;;;;;7384812;19;20015;-69
2022/11/09 04:04:32;;;;;;;24.88;13.60;;;;;;;;;;7388321;19;20018;-70
2022/11/09 04:06:57;;;;;;;24.13;14.52;;;;;;;;;;7388875;19;20345;-69
2022/11/09 04:09:22;;;;;;;25.65;14.98;;;;;;;;;;7386540;19;20034;-69
2022/11/09 04:11:48;;;;;;;25.00;16.42;;;;;;;;;;7385058;19;20530;-68
2022/11/09 04:14:13;;;;;;;28.33;16.27;;;;;;;;;;7385724;19;20001;-68
2022/11/09 04:16:38;;;;;;;25.83;15.68;;;;;;;;;;7387479;19;20002;-69
2022/11/09 04:19:04;;;;;;;21.88;15.57;;;;;;;;;;7385917;19;20006;-70
2022/11/09 04:21:29;;;;;;;28.60;16.90;;;;;;;;;;7384897;19;20340;-70
2022/11/09 04:23:54;;;;;;;25.70;17.33;;;;;;;;;;7387239;19;19990;-69
2022/11/09 04:26:19;;;;;;;24.98;16.60;;;;;;;;;;7384917;19;20028;-69
2022/11/09 04:28:45;;;;;;;29.15;17.60;;;;;;;;;;7389046;19;19999;-70
2022/11/09 04:31:10;;;;;;;29.27;17.60;;;;;;;;;;7386514;19;20022;-69
2022/11/09 04:33:36;;;;;;;33.25;17.92;;;;;;;;;;7383100;19;20026;-69
2022/11/09 04:36:03;;;;;;;26.70;17.20;;;;;;;;;;7382683;19;20456;-69
2022/11/09 04:38:28;;;;;;;30.00;17.77;;;;;;;;;;7383504;19;19999;-71
2022/11/09 04:40:53;;;;;;;26.33;16.50;;;;;;;;;;7390437;19;20009;-69
2022/11/09 04:43:19;;;;;;;23.55;16.58;;;;;;;;;;7385746;19;19999;-69
2022/11/09 04:45:46;;;;;;;22.75;14.77;;;;;;;;;;7385439;19;19994;-70
2022/11/09 04:48:11;;;;;;;23.80;15.48;;;;;;;;;;7389230;19;19990;-69
2022/11/09 04:50:37;;;;;;;22.90;15.52;;;;;;;;;;7391832;19;20082;-69
2022/11/09 04:53:10;;;;;;;21.40;14.00;;;;;;;;;;7390665;19;19995;-69
2022/11/09 04:55:36;;;;;;;25.33;13.63;;;;;;;;;;7393293;19;19998;-69
2022/11/09 04:58:02;;;;;;;21.80;14.32;;;;;;;;;;7392455;19;19998;-69
2022/11/09 05:00:28;;;;;;;22.23;13.40;;;;;;;;;;7391825;19;19995;-69
2022/11/09 05:02:53;;;;;;;22.23;12.57;;;;;;;;;;7390418;19;20399;-70
2022/11/09 05:05:18;;;;;;;18.80;12.80;;;;;;;;;;7393235;19;19999;-69
2022/11/09 05:07:44;;;;;;;17.23;12.40;;;;;;;;;;7393582;19;20038;-69
2022/11/09 05:10:09;;;;;;;21.67;13.27;;;;;;;;;;7393102;19;19998;-70
2022/11/09 05:12:34;;;;;;;18.95;12.52;;;;;;;;;;7386958;19;20001;-70
2022/11/09 05:15:00;;;;;;;21.20;13.52;;;;;;;;;;7392801;19;20009;-70
2022/11/09 05:17:25;;;;;;;20.70;12.73;;;;;;;;;;7392700;19;19999;-70
2022/11/09 05:19:50;;;;;;;24.58;13.73;;;;;;;;;;7390432;19;20424;-70
2022/11/09 05:25:00;;;;;;;23.02;14.02;;;;;;;;;;7392743;19;20022;-69
2022/11/09 05:27:25;;;;;;;24.25;13.73;;;;;;;;;;7392357;19;19991;-71
2022/11/09 05:29:50;;;;;;;21.15;13.82;;;;;;;;;;7392115;19;19998;-69
2022/11/09 05:32:15;;;;;;;23.83;14.25;;;;;;;;;;7390575;19;20007;-71
2022/11/09 05:34:41;;;;;;;24.20;14.30;;;;;;;;;;7392103;19;20008;-70
2022/11/09 05:37:06;;;;;;;21.60;14.30;;;;;;;;;;7390596;19;19999;-70
2022/11/09 05:39:32;;;;;;;25.08;14.95;;;;;;;;;;7389924;19;19999;-69
2022/11/09 05:41:57;;;;;;;30.17;16.23;;;;;;;;;;7390562;19;20357;-71
2022/11/09 05:44:22;;;;;;;25.27;15.52;;;;;;;;;;7391941;19;20126;-70
2022/11/09 05:46:48;;;;;;;31.70;17.58;;;;;;;;;;7392274;19;20370;-69
2022/11/09 05:49:13;;;;;;;29.45;17.27;;;;;;;;;;7390600;19;20311;-69
2022/11/09 05:51:38;;;;;;;34.78;18.63;;;;;;;;;;7394542;19;20003;-71
2022/11/09 05:54:04;;;;;;;31.45;19.40;;;;;;;;;;7395257;19;19999;-69
2022/11/09 05:56:29;;;;;;;36.15;20.30;;;;;;;;;;7395813;19;19993;-69
2022/11/09 05:58:56;;;;;;;33.70;19.63;;;;;;;;;;7384503;19;20002;-69
2022/11/09 06:01:21;;;;;;;35.83;20.42;;;;;;;;;;7390477;19;20369;-69
2022/11/09 06:03:46;;;;;;;29.15;18.13;;;;;;;;;;7394250;19;19986;-69
2022/11/09 06:06:16;;;;;;;30.58;18.55;;;;;;;;;;7395468;19;20062;-68
2022/11/09 06:08:41;;;;;;;33.10;19.90;;;;;;;;;;7371497;19;20867;-69
2022/11/09 06:11:09;;;;;;;33.28;20.38;;;;;;;;;;7393449;19;20006;-69
2022/11/09 06:13:35;;;;;;;34.47;18.83;;;;;;;;;;7391755;19;19994;-68
2022/11/09 06:16:02;;;;;;;33.90;19.52;;;;;;;;;;7394410;19;19999;-69
2022/11/09 06:18:30;;;;;;;33.75;20.30;;;;;;;;;;7393030;19;19999;-68
2022/11/09 06:20:58;;;;;;;35.25;19.65;;;;;;;;;;7394518;19;20014;-69
2022/11/09 06:23:28;;;;;;;35.60;20.05;;;;;;;;;;7390222;19;20002;-69
2022/11/09 06:26:05;;;;;;;37.33;20.45;;;;;;;;;;7392275;19;20010;-70
2022/11/09 06:28:31;;;;;;;36.03;19.85;;;;;;;;;;7394676;19;20498;-70
2022/11/09 06:30:57;;;;;;;32.60;20.00;;;;;;;;;;7393220;19;19998;-70
2022/11/09 06:33:23;;;;;;;30.90;17.85;;;;;;;;;;7391921;19;19999;-69
2022/11/09 06:35:48;;;;;;;30.42;17.65;;;;;;;;;;7393451;19;20006;-70
2022/11/09 06:38:13;;;;;;;30.92;17.98;;;;;;;;;;7390923;19;19991;-70
2022/11/09 06:40:39;;;;;;;28.23;18.00;;;;;;;;;;7393820;19;20074;-69
2022/11/09 06:43:04;;;;;;;29.48;17.60;;;;;;;;;;7383952;19;20007;-71
2022/11/09 06:45:31;;;;;;;28.85;16.05;;;;;;;;;;7393557;19;20002;-70
2022/11/09 06:48:03;;;;;;;31.00;15.63;;;;;;;;;;7393083;19;20019;-69
2022/11/09 06:50:32;;;;;;;28.90;16.77;;;;;;;;;;7389894;19;20817;-69
2022/11/09 06:52:59;;;;;;;28.48;16.50;;;;;;;;;;7389676;19;20009;-72
2022/11/09 06:55:26;;;;;;;24.52;15.90;;;;;;;;;;7391135;19;20005;-70
2022/11/09 06:57:51;;;;;;;26.00;15.65;;;;;;;;;;7390952;19;19999;-70
2022/11/09 07:00:17;;;;;;;23.30;14.57;;;;;;;;;;7392118;19;20019;-69
2022/11/09 07:02:43;;;;;;;25.70;14.88;;;;;;;;;;7388752;19;20471;-70
2022/11/09 07:05:09;;;;;;;29.23;15.77;;;;;;;;;;7390049;19;19999;-70
2022/11/09 07:07:34;;;;;;;27.88;15.98;;;;;;;;;;7389335;19;20026;-68
2022/11/09 07:10:00;;;;;;;25.55;14.90;;;;;;;;;;7391396;19;20344;-68
2022/11/09 07:12:25;;;;;;;25.92;15.10;;;;;;;;;;7390397;19;20441;-69
2022/11/09 07:14:51;;;;;;;21.17;13.90;;;;;;;;;;7392792;19;20426;-68
2022/11/09 07:17:16;;;;;;;27.17;15.02;;;;;;;;;;7392105;19;20005;-69
2022/11/09 07:19:41;;;;;;;28.27;15.07;;;;;;;;;;7390556;19;19998;-70
2022/11/09 07:22:07;;;;;;;27.02;14.50;;;;;;;;;;7391106;19;19994;-68
2022/11/09 07:24:32;;;;;;;24.60;14.48;;;;;;;;;;7392364;19;19994;-69
2022/11/09 07:26:57;;;;;;;23.42;14.40;;;;;;;;;;7393375;19;20023;-71
2022/11/09 07:29:22;;;;;;;25.40;14.75;;;;;;;;;;7389845;19;19999;-68
2022/11/09 07:31:48;;;;;;;22.85;14.45;;;;;;;;;;7389353;19;20012;-69
2022/11/09 07:34:14;;;;;;;23.23;13.85;;;;;;;;;;7391416;19;20448;-68
2022/11/09 07:36:39;;;;;;;25.83;15.05;;;;;;;;;;7392820;19;20074;-70
2022/11/09 07:39:05;;;;;;;27.58;15.68;;;;;;;;;;7386738;19;20062;-69
2022/11/09 07:41:30;;;;;;;24.02;15.13;;;;;;;;;;7389755;19;20086;-69
2022/11/09 07:43:58;;;;;;;25.05;14.23;;;;;;;;;;7388919;19;20021;-69
2022/11/09 07:46:23;;;;;;;24.40;15.02;;;;;;;;;;7391109;19;20007;-69
2022/11/09 07:48:49;;;;;;;24.67;14.52;;;;;;;;;;7392285;19;20005;-68
2022/11/09 07:51:14;;;;;;;24.95;14.55;;;;;;;;;;7388750;19;20026;-68
2022/11/09 07:53:39;;;;;;;27.08;14.90;;;;;;;;;;7383424;19;20010;-69
2022/11/09 07:56:05;;;;;;;22.88;13.18;;;;;;;;;;7385280;19;19987;-69
2022/11/09 07:58:31;;;;;;;19.83;13.73;;;;;;;;;;7386264;19;20341;-70
2022/11/09 08:00:56;;;;;;;24.48;13.82;;;;;;;;;;7388427;19;19990;-69
2022/11/09 08:03:23;;;;;;;21.90;13.20;;;;;;;;;;7385333;19;20005;-69
2022/11/09 08:05:49;;;;;;;24.10;14.25;;;;;;;;;;7388009;19;20013;-69
2022/11/09 08:08:15;;;;;;;27.95;14.38;;;;;;;;;;7386390;19;19998;-70
2022/11/09 08:10:42;;;;;;;21.30;12.88;;;;;;;;;;7391727;19;19994;-70
2022/11/09 08:13:12;;;;;;;23.48;13.57;;;;;;;;;;7387531;19;19999;-68
2022/11/09 08:15:39;;;;;;;21.88;13.63;;;;;;;;;;7387085;19;20454;-68
2022/11/09 08:18:12;;;;;;;19.55;12.30;;;;;;;;;;7389387;19;19999;-69
2022/11/09 08:20:37;;;;;;;19.20;12.80;;;;;;;;;;7391830;19;19998;-70
2022/11/09 08:23:03;;;;;;;19.98;12.55;;;;;;;;;;7389095;19;20297;-74
2022/11/09 08:25:28;;;;;;;22.70;12.40;;;;;;;;;;7397326;19;20002;-74
2022/11/09 08:27:57;;;;;;;18.08;10.50;;;;;;;;;;7397807;19;20006;-72
2022/11/09 08:30:23;;;;;;;15.55;10.43;;;;;;;;;;7397812;19;20388;-72
2022/11/09 08:33:41;;;;;;;12.40;8.70;;;;;;;;;;7393856;19;19987;-74
2022/11/09 08:36:11;;;;;;;14.02;8.55;;;;;;;;;;7394051;19;20009;-74
2022/11/09 08:38:37;;;;;;;13.38;9.02;;;;;;;;;;7393274;19;20066;-74
2022/11/09 08:41:02;;;;;;;12.70;8.20;;;;;;;;;;7389033;19;19995;-74
2022/11/09 08:43:28;;;;;;;11.48;7.72;;;;;;;;;;7390649;19;20011;-74
2022/11/09 08:45:53;;;;;;;12.43;7.63;;;;;;;;;;7393284;19;20022;-73
2022/11/09 08:48:18;;;;;;;10.88;7.05;;;;;;;;;;7396129;19;20014;-73
2022/11/09 08:50:44;;;;;;;12.52;7.30;;;;;;;;;;7395966;19;20065;-74
2022/11/09 08:53:09;;;;;;;11.43;7.07;;;;;;;;;;7396588;19;20042;-74
2022/11/09 08:55:35;;;;;;;10.15;5.88;;;;;;;;;;7398856;19;20022;-74
2022/11/09 08:58:02;;;;;;;7.32;5.00;;;;;;;;;;7400853;19;20330;-73
2022/11/09 09:00:28;;;;;;;7.95;4.53;;;;;;;;;;7397302;19;20013;-74
2022/11/09 09:02:53;;;;;;;6.60;4.20;;;;;;;;;;7394455;19;20480;-74
2022/11/09 09:05:19;;;;;;;6.53;3.90;;;;;;;;;;7397021;19;20352;-73
2022/11/09 09:07:44;;;;;;;6.30;3.63;;;;;;;;;;7392943;19;19998;-74
2022/11/09 09:10:10;;;;;;;5.63;3.47;;;;;;;;;;7395880;19;19998;-73
2022/11/09 09:12:35;;;;;;;5.22;2.78;;;;;;;;;;7392788;19;20009;-74
2022/11/09 09:15:01;;;;;;;4.55;2.70;;;;;;;;;;7392610;19;20010;-74
2022/11/09 09:17:26;;;;;;;5.30;2.95;;;;;;;;;;7390171;19;20006;-74
2022/11/09 09:19:51;;;;;;;4.25;2.78;;;;;;;;;;7394646;19;20009;-73
2022/11/09 09:22:17;;;;;;;5.93;2.78;;;;;;;;;;7393458;19;20003;-74
2022/11/09 09:24:42;;;;;;;4.47;2.78;;;;;;;;;;7396850;19;20005;-74
2022/11/09 09:27:08;;;;;;;4.53;2.80;;;;;;;;;;7393707;19;19999;-74
2022/11/09 09:29:33;;;;;;;4.50;3.03;;;;;;;;;;7392956;19;20003;-74
2022/11/09 09:31:59;;;;;;;6.18;2.40;;;;;;;;;;7393982;19;20018;-75
2022/11/09 09:34:24;;;;;;;3.38;2.33;;;;;;;;;;7394590;19;20002;-74
2022/11/09 09:36:53;;;;;;;4.90;2.60;;;;;;;;;;7396495;19;20532;-74
2022/11/09 09:39:18;;;;;;;6.28;2.30;;;;;;;;;;7392258;19;20010;-74
2022/11/09 09:41:55;;;;;;;4.93;2.40;;;;;;;;;;7391644;19;20019;-76
2022/11/09 09:44:32;;;;;;;7.13;2.03;;;;;;;;;;7394283;19;20007;-75
2022/11/09 09:47:06;;;;;;;5.55;1.98;;;;;;;;;;7396845;19;20515;-73
2022/11/09 09:49:37;;;;;;;4.85;2.08;;;;;;;;;;7394135;19;20018;-74
2022/11/09 09:52:21;;;;;;;2.72;1.63;;;;;;;;;;7394043;19;20003;-75
2022/11/09 09:55:02;;;;;;;3.20;1.98;;;;;;;;;;7396635;19;20006;-74
2022/11/09 09:57:29;;;;;;;5.65;2.70;;;;;;;;;;7393672;19;20019;-74
2022/11/09 09:59:59;;;;;;;5.18;1.83;;;;;;;;;;7392141;19;20332;-74
2022/11/09 10:02:34;;;;;;;3.93;2.00;;;;;;;;;;7393811;19;20464;-76
2022/11/09 10:05:05;;;;;;;2.70;1.70;;;;;;;;;;7392451;19;19999;-74
2022/11/09 10:08:21;;;;;;;5.15;1.90;;;;;;;;;;7392697;19;20002;-74
2022/11/09 10:10:58;;;;;;;3.28;1.60;;;;;;;;;;7388890;19;20006;-73
2022/11/09 10:13:30;;;;;;;4.45;1.85;;;;;;;;;;7391196;19;20006;-74
2022/11/09 10:16:11;;;;;;;4.40;2.00;;;;;;;;;;7393844;19;20002;-74
2022/11/09 10:18:45;;;;;;;;;;;;;;;;;;7394627;19;20730;-74
2022/11/09 10:21:44;;;;;;;3.90;1.48;;;;;;;;;;7390581;19;19928;-74
2022/11/09 10:24:48;;;;;;;2.55;1.70;;;;;;;;;;7394542;19;20029;-74
2022/11/09 10:27:33;;;;;;;4.05;1.70;;;;;;;;;;7391764;19;20372;-75
2022/11/09 10:30:00;;;;;;;3.50;1.50;;;;;;;;;;7392113;19;20062;-75
2022/11/09 10:32:30;;;;;;;5.32;1.58;;;;;;;;;;7391246;19;20026;-75
2022/11/09 10:35:12;;;;;;;2.78;1.50;;;;;;;;;;7394675;19;19995;-75
2022/11/09 10:37:42;;;;;;;2.95;1.60;;;;;;;;;;7391686;19;20006;-76
2022/11/09 10:40:07;;;;;;;2.78;1.60;;;;;;;;;;7393940;19;20029;-75
2022/11/09 10:42:33;;;;;;;4.55;1.60;;;;;;;;;;7391539;19;20090;-76
2022/11/09 10:45:10;;;;;;;4.25;1.67;;;;;;;;;;7391995;19;20020;-76
2022/11/09 10:47:49;;;;;;;3.15;1.60;;;;;;;;;;7393278;19;20043;-76
2022/11/09 10:50:29;;;;;;;2.78;1.67;;;;;;;;;;7393312;19;20033;-75
2022/11/09 10:53:14;;;;;;;2.17;1.50;;;;;;;;;;7391856;19;20002;-76
2022/11/09 10:55:57;;;;;;;2.13;1.48;;;;;;;;;;7393724;19;20018;-75
2022/11/09 10:58:35;;;;;;;4.22;1.60;;;;;;;;;;7391270;19;20406;-76
2022/11/09 11:01:05;;;;;;;3.45;1.70;;;;;;;;;;7391509;19;20006;-76
2022/11/09 11:03:35;;;;;;;2.63;1.80;;;;;;;;;;7391339;19;19998;-75
2022/11/09 11:06:25;;;;;;;3.28;1.63;;;;;;;;;;7387024;19;20068;-76
2022/11/09 11:08:56;;;;;;;4.80;1.80;;;;;;;;;;7390691;19;19999;-76
2022/11/09 11:11:28;;;;;;;3.33;1.50;;;;;;;;;;7386114;19;20010;-75
2022/11/09 11:14:13;;;;;;;8.05;1.70;;;;;;;;;;7385397;19;20472;-76
2022/11/09 11:16:40;;;;;;;1.70;1.50;;;;;;;;;;7388437;19;20546;-75
2022/11/09 11:19:24;;;;;;;4.93;1.80;;;;;;;;;;7384503;19;20337;-77
2022/11/09 11:22:14;;;;;;;3.90;1.60;;;;;;;;;;7385823;19;20388;-76
2022/11/09 11:25:01;;;;;;;4.97;1.85;;;;;;;;;;7390547;19;20010;-76
2022/11/09 11:27:30;;;;;;;4.35;1.42;;;;;;;;;;7390521;19;20330;-76
2022/11/09 11:30:11;;;;;;;4.93;1.33;;;;;;;;;;7389538;19;20054;-76
2022/11/09 11:32:36;;;;;;;5.07;1.55;;;;;;;;;;7388818;19;20002;-76
2022/11/09 11:35:14;;;;;;;2.00;1.13;;;;;;;;;;7389813;19;19997;-76
2022/11/09 11:37:47;;;;;;;2.45;1.15;;;;;;;;;;7390120;19;20003;-76
2022/11/09 11:40:37;;;;;;;1.77;1.02;;;;;;;;;;7395460;19;20002;-76
2022/11/09 11:43:31;;;;;;;1.17;1.05;;;;;;;;;;7387867;19;20003;-77
2022/11/09 11:46:02;;;;;;;3.03;0.98;;;;;;;;;;7393119;19;20027;-78
2022/11/09 11:48:30;;;;;;;1.05;0.95;;;;;;;;;;7392191;19;20002;-78
2022/11/09 11:51:10;;;;;;;4.95;1.15;;;;;;;;;;7392196;19;19995;-76
2022/11/09 11:53:38;;;;;;;2.40;1.23;;;;;;;;;;7388504;19;20070;-77
2022/11/09 11:56:18;;;;;;;4.05;1.50;;;;;;;;;;7391415;19;20485;-77
2022/11/09 11:59:07;;;;;;;5.85;1.73;;;;;;;;;;7387631;19;20002;-77
2022/11/09 12:01:49;;;;;;;2.88;1.30;;;;;;;;;;7389410;19;20002;-76
2022/11/09 12:04:36;;;;;;;3.75;1.27;;;;;;;;;;7390515;19;19995;-76
2022/11/09 12:07:11;;;;;;;4.32;1.50;;;;;;;;;;7388896;19;19999;-77
2022/11/09 12:10:22;;;;;;;3.00;1.05;;;;;;;;;;7389617;19;20070;-76
2022/11/09 12:12:59;;;;;;;2.80;1.08;;;;;;;;;;7384274;19;20006;-77
2022/11/09 12:16:07;;;;;;;6.03;1.38;;;;;;;;;;7389156;19;20981;-78
2022/11/09 12:18:49;;;;;;;1.77;0.95;;;;;;;;;;7387764;19;19999;-77
2022/11/09 12:21:27;;;;;;;4.35;1.13;;;;;;;;;;7388887;19;20040;-75
2022/11/09 12:24:05;;;;;;;2.72;1.20;;;;;;;;;;7390241;19;20354;-75
2022/11/09 12:26:47;;;;;;;3.20;1.20;;;;;;;;;;7389747;19;20002;-75
2022/11/09 12:29:29;;;;;;;3.53;1.10;;;;;;;;;;7388188;19;20029;-76
2022/11/09 12:32:16;;;;;;;1.63;1.00;;;;;;;;;;7388719;19;20365;-74
2022/11/09 12:34:56;;;;;;;3.92;1.17;;;;;;;;;;7389048;19;20347;-76
2022/11/09 12:37:28;;;;;;;3.63;1.02;;;;;;;;;;7389139;19;20002;-75
2022/11/09 12:39:56;;;;;;;1.98;1.08;;;;;;;;;;7387559;19;20003;-75
2022/11/09 12:42:41;;;;;;;3.90;1.20;;;;;;;;;;7388730;19;20013;-76
2022/11/09 12:45:31;;;;;;;3.50;0.88;;;;;;;;;;7387320;19;20002;-75
2022/11/09 12:48:02;;;;;;;2.20;1.10;;;;;;;;;;7388170;19;20359;-75
2022/11/09 12:50:28;;;;;;;;;;;;;;;;;;7389871;19;20032;-75
2022/11/09 12:52:53;;;;;;;4.22;1.17;;;;;;;;;;7388381;19;19918;-76
2022/11/09 12:55:27;;;;;;;3.45;1.27;;;;;;;;;;7387061;19;20011;-76
2022/11/09 12:57:53;;;;;;;3.47;1.10;;;;;;;;;;7386429;19;20417;-75
2022/11/09 13:00:34;;;;;;;4.07;1.58;;;;;;;;;;7387123;19;20011;-76
2022/11/09 13:03:03;;;;;;;3.42;1.40;;;;;;;;;;7386101;19;20003;-76
2022/11/09 13:05:34;;;;;;;5.32;1.38;;;;;;;;;;7389360;19;19994;-76
2022/11/09 13:08:02;;;;;;;5.30;1.52;;;;;;;;;;7386521;19;20066;-76
2022/11/09 13:10:35;;;;;;;4.35;1.08;;;;;;;;;;7399383;19;20017;-77
2022/11/09 13:13:19;;;;;;;3.78;1.30;;;;;;;;;;7398045;19;19999;-74
2022/11/09 13:16:11;;;;;;;3.95;1.20;;;;;;;;;;7400431;19;20031;-76
2022/11/09 13:18:36;;;;;;;4.38;1.25;;;;;;;;;;7394298;19;19995;-75
2022/11/09 13:21:32;;;;;;;2.00;1.13;;;;;;;;;;7390607;19;20551;-75
2022/11/09 13:24:30;;;;;;;2.80;1.20;;;;;;;;;;7393183;19;20252;-75
2022/11/09 13:26:58;;;;;;;2.60;1.23;;;;;;;;;;7396818;19;20003;-74
2022/11/09 13:29:26;;;;;;;3.60;1.27;;;;;;;;;;7396852;19;20022;-76
2022/11/09 13:32:11;;;;;;;4.80;1.38;;;;;;;;;;7396147;19;19999;-75
2022/11/09 13:34:46;;;;;;;3.13;1.13;;;;;;;;;;7394904;19;19998;-75
2022/11/09 13:37:40;;;;;;;4.50;1.20;;;;;;;;;;7396314;19;19994;-75
2022/11/09 13:40:30;;;;;;;4.75;1.67;;;;;;;;;;7391465;19;20336;-76
2022/11/09 13:43:14;;;;;;;6.70;1.40;;;;;;;;;;7393288;19;19998;-75
2022/11/09 13:45:55;;;;;;;3.92;1.30;;;;;;;;;;7396451;19;20484;-75
2022/11/09 13:48:35;;;;;;;2.40;1.33;;;;;;;;;;7395607;19;20002;-75
2022/11/09 13:51:08;;;;;;;4.97;1.40;;;;;;;;;;7393730;19;20279;-75
2022/11/09 13:53:36;;;;;;;2.50;1.17;;;;;;;;;;7394612;19;20020;-75
2022/11/09 13:56:37;;;;;;;6.45;1.40;;;;;;;;;;7393947;19;20018;-75
2022/11/09 13:59:02;;;;;;;4.95;1.35;;;;;;;;;;7389957;19;19999;-74
2022/11/09 14:01:32;;;;;;;3.42;1.52;;;;;;;;;;7393449;19;19991;-75
2022/11/09 14:03:57;;;;;;;3.55;1.42;;;;;;;;;;7392186;19;20005;-75
2022/11/09 14:06:23;;;;;;;5.13;1.67;;;;;;;;;;7393636;19;20390;-77
2022/11/09 14:08:50;;;;;;;5.60;1.40;;;;;;;;;;7394878;19;20098;-76
2022/11/09 14:11:56;;;;;;;3.97;1.50;;;;;;;;;;7394907;19;20010;-77
2022/11/09 14:14:42;;;;;;;4.50;1.73;;;;;;;;;;7391315;19;19998;-77
2022/11/09 14:17:41;;;;;;;3.78;1.50;;;;;;;;;;7394555;19;19999;-77
2022/11/09 14:20:35;;;;;;;6.10;1.60;;;;;;;;;;7388934;19;20070;-77
2022/11/09 14:23:01;;;;;;;2.60;1.45;;;;;;;;;;7391500;19;19998;-78
2022/11/09 14:25:35;;;;;;;3.67;1.42;;;;;;;;;;7394469;19;20021;-78
2022/11/09 14:28:00;;;;;;;4.75;1.95;;;;;;;;;;7390510;19;20023;-80
2022/11/09 14:30:30;;;;;;;3.03;1.50;;;;;;;;;;7392489;19;19999;-78
2022/11/09 14:32:57;;;;;;;5.53;1.80;;;;;;;;;;7390895;19;20425;-77
2022/11/09 14:35:31;;;;;;;4.32;1.50;;;;;;;;;;7394045;19;20070;-77
2022/11/09 14:38:01;;;;;;;5.68;1.67;;;;;;;;;;7391071;19;20005;-76
2022/11/09 14:40:31;;;;;;;2.47;1.30;;;;;;;;;;7393260;19;20006;-78
2022/11/09 14:43:02;;;;;;;4.93;1.77;;;;;;;;;;7391932;19;19999;-77
2022/11/09 14:45:28;;;;;;;6.75;1.55;;;;;;;;;;7394857;19;20511;-77
2022/11/09 14:47:57;;;;;;;2.90;1.42;;;;;;;;;;7395536;19;20007;-77
2022/11/09 14:50:26;;;;;;;6.50;1.67;;;;;;;;;;7392971;19;19990;-77
2022/11/09 14:52:54;;;;;;;3.55;1.85;;;;;;;;;;7388630;19;20054;-77